Time;durP1;ratioP1;P1;durP2;ratioP2;P2;SDS_P1;SDS_P2;PMS_P1;PMS_P2;Temp;Humidity;BMP_temperature;BMP_pressure;BME280_temperature;BME280_humidity;BME280_pressure;Samples;Min_cycle;Max_cycle;Signal;HPM_P1;HPM_P2
2023/09/10 00:01:28;;;;;;;33.17;26.83;;;;;;;20.18;100.00;101675.00;5008070;28;20040;-88
2023/09/10 00:03:53;;;;;;;31.88;28.52;;;;;;;20.16;100.00;101667.97;5025904;28;20084;-87
2023/09/10 00:06:19;;;;;;;26.63;23.98;;;;;;;20.16;100.00;101676.97;5020928;28;20100;-87
2023/09/10 00:08:45;;;;;;;31.13;18.52;;;;;;;20.10;100.00;101672.09;4997438;28;20038;-86
2023/09/10 00:11:10;;;;;;;21.10;19.05;;;;;;;20.05;100.00;101673.53;5021890;28;21208;-87
2023/09/10 00:13:36;;;;;;;24.17;19.73;;;;;;;19.99;100.00;101671.38;5020272;28;20033;-86
2023/09/10 00:16:02;;;;;;;208.07;42.03;;;;;;;19.98;100.00;101678.66;5015601;28;20137;-86
2023/09/10 00:18:27;;;;;;;50.60;28.38;;;;;;;20.02;100.00;101676.50;5021224;28;20759;-87
2023/09/10 00:20:54;;;;;;;48.45;38.75;;;;;;;19.94;100.00;101673.63;5005419;28;20048;-88
2023/09/10 00:23:21;;;;;;;44.38;33.95;;;;;;;19.90;100.00;101676.59;5003682;28;20025;-87
2023/09/10 00:25:47;;;;;;;32.67;28.85;;;;;;;19.90;100.00;101675.75;5004668;28;20046;-87
2023/09/10 00:28:13;;;;;;;32.72;29.10;;;;;;;19.93;100.00;101675.50;4997927;28;20033;-87
2023/09/10 00:30:39;;;;;;;27.70;24.88;;;;;;;19.95;100.00;101669.94;5036306;28;20056;-87
2023/09/10 00:33:04;;;;;;;28.05;24.63;;;;;;;19.86;100.00;101675.16;5009081;28;20068;-88
2023/09/10 00:35:30;;;;;;;30.48;26.88;;;;;;;19.86;100.00;101677.88;5018606;28;20049;-87
2023/09/10 00:37:56;;;;;;;34.13;28.58;;;;;;;19.85;100.00;101673.47;4996634;28;20117;-87
2023/09/10 00:40:22;;;;;;;42.35;29.00;;;;;;;19.78;100.00;101668.72;5024611;28;20030;-87
2023/09/10 00:42:47;;;;;;;31.83;27.23;;;;;;;19.83;100.00;101664.63;5036875;28;20065;-87
2023/09/10 00:45:13;;;;;;;28.40;24.98;;;;;;;19.87;100.00;101673.31;5013850;28;20046;-86
2023/09/10 00:47:45;;;;;;;27.45;24.65;;;;;;;19.84;100.00;101669.03;5016748;28;20569;-88
2023/09/10 00:50:13;;;;;;;29.58;24.85;;;;;;;19.81;100.00;101660.34;5002161;28;20041;-86
2023/09/10 00:52:46;;;;;;;26.77;23.85;;;;;;;19.80;100.00;101662.19;5016202;28;20038;-86
2023/09/10 00:55:13;;;;;;;24.30;20.42;;;;;;;19.70;100.00;101661.28;4990656;28;20045;-87
2023/09/10 00:57:39;;;;;;;17.48;15.85;;;;;;;19.67;100.00;101665.13;5043219;28;20041;-87
2023/09/10 01:00:09;;;;;;;15.20;13.90;;;;;;;19.66;100.00;101657.13;5025426;28;20105;-87
2023/09/10 01:02:38;;;;;;;15.77;14.13;;;;;;;19.60;100.00;101669.38;5023498;28;20776;-87
2023/09/10 01:05:04;;;;;;;31.65;28.38;;;;;;;19.65;100.00;101668.97;5008495;28;20140;-87
2023/09/10 01:07:30;;;;;;;30.23;26.42;;;;;;;19.62;100.00;101667.38;5026240;28;20033;-86
2023/09/10 01:09:56;;;;;;;28.80;25.70;;;;;;;19.58;100.00;101671.34;5019839;28;20046;-87
2023/09/10 01:12:49;;;;;;;38.90;31.50;;;;;;;19.53;100.00;101673.59;5026640;28;20030;-88
2023/09/10 01:15:23;;;;;;;;;;;;;;;19.59;100.00;101681.19;5001664;28;20049;-86
2023/09/10 01:17:59;;;;;;;33.05;26.60;;;;;;;19.59;100.00;101680.31;5018192;28;19921;-86
2023/09/10 01:20:52;;;;;;;30.00;27.17;;;;;;;19.51;100.00;101680.09;5020413;28;20040;-86
2023/09/10 01:23:49;;;;;;;26.02;23.65;;;;;;;19.52;100.00;101679.09;5027188;28;20177;-87
2023/09/10 01:26:18;;;;;;;32.53;29.13;;;;;;;19.49;100.00;101676.69;5001669;28;20131;-86
2023/09/10 01:28:47;;;;;;;50.15;37.67;;;;;;;19.47;100.00;101681.38;5015116;28;20126;-86
2023/09/10 01:31:13;;;;;;;41.47;31.73;;;;;;;19.41;100.00;101672.78;5027755;28;20037;-87
2023/09/10 01:33:44;;;;;;;46.60;30.08;;;;;;;19.38;100.00;101678.50;5041807;28;20043;-87
2023/09/10 01:36:38;;;;;;;34.45;28.30;;;;;;;19.41;100.00;101680.06;5015444;28;20038;-87
2023/09/10 01:39:22;;;;;;;34.50;24.95;;;;;;;19.33;100.00;101678.03;5004773;28;20385;-88
2023/09/10 01:41:50;;;;;;;79.10;46.88;;;;;;;19.37;100.00;101670.50;5040000;28;20028;-87
2023/09/10 01:44:16;;;;;;;48.78;37.63;;;;;;;19.41;100.00;101672.78;4996080;28;20046;-86
2023/09/10 01:46:44;;;;;;;46.53;34.78;;;;;;;19.46;100.00;101677.81;5001278;28;20037;-86
2023/09/10 01:49:10;;;;;;;40.38;31.13;;;;;;;19.47;100.00;101667.84;5011438;28;20041;-87
2023/09/10 01:51:36;;;;;;;34.55;28.85;;;;;;;19.39;100.00;101672.09;5005519;28;20052;-87
2023/09/10 01:54:02;;;;;;;28.20;25.38;;;;;;;19.35;100.00;101677.88;5001966;28;20034;-88
2023/09/10 01:56:27;;;;;;;25.50;22.95;;;;;;;19.34;100.00;101674.34;5005556;28;20030;-87
2023/09/10 01:58:53;;;;;;;174.35;30.58;;;;;;;19.28;100.00;101684.84;5002347;28;20416;-86
2023/09/10 02:01:19;;;;;;;21.00;18.75;;;;;;;19.22;100.00;101680.78;5019421;28;20888;-87
2023/09/10 02:03:45;;;;;;;26.92;22.40;;;;;;;19.17;100.00;101688.44;4993017;28;20034;-87
2023/09/10 02:06:11;;;;;;;34.45;27.75;;;;;;;19.19;100.00;101696.44;5024919;28;20223;-88
2023/09/10 02:08:37;;;;;;;33.13;27.42;;;;;;;19.22;100.00;101691.59;5019512;28;20743;-87
2023/09/10 02:11:04;;;;;;;38.35;29.27;;;;;;;19.24;100.00;101688.78;5006648;28;20026;-87
2023/09/10 02:13:33;;;;;;;45.33;36.28;;;;;;;19.32;100.00;101687.13;5021514;28;20034;-86
2023/09/10 02:15:59;;;;;;;40.85;32.85;;;;;;;19.35;100.00;101689.56;5013370;28;20025;-87
2023/09/10 02:18:27;;;;;;;39.25;31.33;;;;;;;19.31;100.00;101693.53;5040059;28;20096;-87
2023/09/10 02:20:56;;;;;;;46.22;33.97;;;;;;;19.22;100.00;101690.75;5020597;28;20140;-87
2023/09/10 02:23:22;;;;;;;55.25;35.00;;;;;;;19.20;100.00;101698.16;5019459;28;20208;-88
2023/09/10 02:25:47;;;;;;;38.45;30.42;;;;;;;19.20;100.00;101696.31;4998302;28;21052;-86
2023/09/10 02:28:13;;;;;;;40.70;33.80;;;;;;;19.21;100.00;101692.59;4996550;28;20241;-88
2023/09/10 02:30:39;;;;;;;37.03;31.02;;;;;;;19.19;100.00;101697.31;5030231;28;20037;-87
2023/09/10 02:33:06;;;;;;;41.05;30.50;;;;;;;19.22;100.00;101691.59;5020644;28;20742;-87
2023/09/10 02:35:32;;;;;;;43.47;34.03;;;;;;;19.22;100.00;101685.34;5039946;28;20033;-87
2023/09/10 02:37:57;;;;;;;43.17;38.35;;;;;;;19.25;100.00;101690.50;5020821;28;20062;-88
2023/09/10 02:40:24;;;;;;;36.78;32.70;;;;;;;19.21;100.00;101689.03;5020962;28;20042;-86
2023/09/10 02:42:51;;;;;;;54.42;40.80;;;;;;;19.19;100.00;101693.75;5014975;28;20067;-87
2023/09/10 02:45:16;;;;;;;36.72;27.30;;;;;;;19.16;100.00;101689.44;5021468;28;20115;-87
2023/09/10 02:47:42;;;;;;;42.58;26.85;;;;;;;19.12;100.00;101686.13;5021912;28;20116;-86
2023/09/10 02:50:09;;;;;;;34.90;30.60;;;;;;;19.15;100.00;101690.44;5019618;28;21009;-86
2023/09/10 02:52:34;;;;;;;36.47;32.63;;;;;;;19.23;100.00;101682.53;5017047;28;20049;-86
2023/09/10 02:55:01;;;;;;;43.75;38.97;;;;;;;19.26;100.00;101690.34;5014521;28;20054;-87
2023/09/10 02:57:27;;;;;;;45.50;32.78;;;;;;;19.24;100.00;101686.94;5005904;28;20418;-87
2023/09/10 02:59:53;;;;;;;37.92;33.83;;;;;;;19.25;100.00;101685.94;5011617;28;20045;-87
2023/09/10 03:02:19;;;;;;;61.67;47.65;;;;;;;19.20;100.00;101685.50;5008485;28;20030;-86
2023/09/10 03:04:45;;;;;;;39.42;33.10;;;;;;;19.19;100.00;101693.75;5019172;28;20547;-86
2023/09/10 03:07:11;;;;;;;38.75;32.97;;;;;;;19.19;100.00;101691.91;5013732;28;20121;-86
2023/09/10 03:09:36;;;;;;;42.70;35.03;;;;;;;19.17;100.00;101693.00;5020360;28;20065;-86
2023/09/10 03:12:25;;;;;;;42.08;37.55;;;;;;;19.14;100.00;101696.84;5024442;28;20034;-85
2023/09/10 03:14:54;;;;;;;41.15;34.88;;;;;;;19.10;100.00;101700.78;5025271;28;20159;-86
2023/09/10 03:17:21;;;;;;;37.17;31.35;;;;;;;19.10;100.00;101690.81;5001887;28;20058;-86
2023/09/10 03:19:47;;;;;;;38.72;32.85;;;;;;;19.08;100.00;101697.38;5028608;28;20040;-86
2023/09/10 03:22:18;;;;;;;37.75;33.65;;;;;;;19.15;100.00;101694.00;5000561;28;20057;-85
2023/09/10 03:24:47;;;;;;;40.72;36.33;;;;;;;19.19;100.00;101699.16;5029734;28;20049;-86
2023/09/10 03:27:13;;;;;;;44.83;38.90;;;;;;;19.09;100.00;101693.69;5027194;28;20587;-86
2023/09/10 03:29:41;;;;;;;43.53;37.13;;;;;;;19.04;100.00;101698.63;5022451;28;20873;-87
2023/09/10 03:32:07;;;;;;;46.85;36.50;;;;;;;19.05;100.00;101693.06;5017555;28;20045;-86
2023/09/10 03:34:34;;;;;;;41.42;35.08;;;;;;;19.03;100.00;101694.22;5032645;28;20060;-86
2023/09/10 03:37:00;;;;;;;42.05;37.45;;;;;;;19.05;100.00;101694.91;5017639;28;20073;-86
2023/09/10 03:39:27;;;;;;;50.05;43.20;;;;;;;19.00;100.00;101684.50;5046447;28;20037;-86
2023/09/10 03:41:56;;;;;;;89.22;49.60;;;;;;;18.97;100.00;101681.19;4999776;28;20034;-87
2023/09/10 03:44:22;;;;;;;91.68;46.47;;;;;;;18.91;100.00;101681.72;5043852;28;20050;-86
2023/09/10 03:46:48;;;;;;;55.42;45.40;;;;;;;18.87;100.00;101683.81;5010919;28;20156;-87
2023/09/10 03:49:15;;;;;;;67.82;45.00;;;;;;;18.84;100.00;101686.81;5030292;28;20609;-86
2023/09/10 03:51:41;;;;;;;43.95;38.28;;;;;;;18.82;100.00;101678.81;5031035;28;20044;-86
2023/09/10 03:54:11;;;;;;;46.40;41.30;;;;;;;18.80;100.00;101679.94;5050198;28;20034;-86
2023/09/10 03:56:39;;;;;;;61.03;44.22;;;;;;;18.82;100.00;101684.22;5028620;28;20032;-87
2023/09/10 03:59:07;;;;;;;54.42;44.65;;;;;;;18.84;100.00;101687.66;5011758;28;20033;-87
2023/09/10 04:01:33;;;;;;;49.00;41.60;;;;;;;18.75;100.00;101677.63;5025177;28;20044;-86
2023/09/10 04:03:59;;;;;;;42.95;38.28;;;;;;;18.79;100.00;101670.13;5025659;28;20037;-87
2023/09/10 04:06:27;;;;;;;48.35;42.17;;;;;;;18.76;100.00;101675.78;5024783;28;20094;-85
2023/09/10 04:08:53;;;;;;;65.38;48.55;;;;;;;18.77;100.00;101678.34;5056277;28;20101;-86
2023/09/10 04:11:19;;;;;;;65.97;52.17;;;;;;;18.85;100.00;101677.69;5032718;28;20105;-87
2023/09/10 04:13:50;;;;;;;68.00;52.92;;;;;;;18.86;100.00;101674.00;5018494;28;20049;-86
2023/09/10 04:16:16;;;;;;;52.85;46.10;;;;;;;18.80;100.00;101678.09;5010436;28;20037;-86
2023/09/10 04:18:43;;;;;;;57.78;45.00;;;;;;;18.82;100.00;101673.41;5025624;28;20050;-86
2023/09/10 04:21:09;;;;;;;54.90;45.20;;;;;;;18.83;100.00;101671.56;5040169;28;20039;-89
2023/09/10 04:23:35;;;;;;;56.90;49.17;;;;;;;18.90;100.00;101672.75;5014120;28;20421;-89
2023/09/10 04:26:01;;;;;;;57.95;45.03;;;;;;;18.87;100.00;101676.56;5032231;28;20037;-89
2023/09/10 04:28:26;;;;;;;51.50;41.42;;;;;;;18.77;100.00;101672.94;5036096;28;20808;-88
2023/09/10 04:30:52;;;;;;;58.78;47.92;;;;;;;18.81;100.00;101682.50;5028136;28;20494;-88
2023/09/10 04:33:18;;;;;;;72.03;58.15;;;;;;;18.84;100.00;101679.53;5020083;28;20034;-88
2023/09/10 04:35:56;;;;;;;69.68;56.55;;;;;;;18.76;100.00;101679.31;5027267;28;20064;-88
2023/09/10 04:38:24;;;;;;;68.35;56.55;;;;;;;18.80;100.00;101680.78;5020000;28;20096;-88
2023/09/10 04:40:50;;;;;;;92.07;64.80;;;;;;;18.81;100.00;101678.94;5013544;28;20042;-88
2023/09/10 04:43:16;;;;;;;65.15;51.00;;;;;;;18.78;100.00;101688.19;5014299;28;20038;-88
2023/09/10 04:45:42;;;;;;;85.00;65.72;;;;;;;18.69;100.00;101688.94;5033996;28;20489;-88
2023/09/10 04:48:08;;;;;;;88.95;67.00;;;;;;;18.61;100.00;101688.69;5017850;28;20049;-88
2023/09/10 04:50:34;;;;;;;61.63;51.60;;;;;;;18.68;100.00;101681.84;5030519;28;20766;-88
2023/09/10 04:53:01;;;;;;;65.53;52.83;;;;;;;18.74;100.00;101686.72;5011142;28;20029;-87
2023/09/10 04:55:27;;;;;;;74.30;59.15;;;;;;;18.79;100.00;101681.78;5021632;28;20034;-88
2023/09/10 04:57:53;;;;;;;79.43;62.10;;;;;;;18.79;100.00;101678.22;5013009;28;20026;-88
2023/09/10 05:00:19;;;;;;;71.95;56.53;;;;;;;18.79;100.00;101684.47;5029623;28;20112;-88
2023/09/10 05:02:45;;;;;;;67.63;55.25;;;;;;;18.82;100.00;101681.50;5048408;28;20106;-88
2023/09/10 05:05:10;;;;;;;66.80;57.08;;;;;;;18.87;100.00;101681.97;5014454;28;20045;-88
2023/09/10 05:07:36;;;;;;;68.40;53.65;;;;;;;18.86;100.00;101677.56;5005765;28;20046;-88
2023/09/10 05:10:02;;;;;;;70.95;57.42;;;;;;;18.88;100.00;101690.97;5007002;28;20330;-89
2023/09/10 05:12:28;;;;;;;63.28;53.58;;;;;;;18.93;100.00;101690.56;5032050;28;20044;-87
2023/09/10 05:14:58;;;;;;;58.50;50.22;;;;;;;18.94;100.00;101685.03;5018190;28;20026;-88
2023/09/10 05:17:26;;;;;;;60.42;52.92;;;;;;;18.95;100.00;101691.28;5013387;28;20083;-87
2023/09/10 05:19:51;;;;;;;50.22;41.90;;;;;;;18.96;100.00;101690.28;5024233;28;20069;-87
2023/09/10 05:22:18;;;;;;;56.50;44.03;;;;;;;19.03;100.00;101694.22;5006693;28;20136;-88
2023/09/10 05:24:44;;;;;;;59.05;45.58;;;;;;;19.04;100.00;101685.09;5013255;28;20057;-87
2023/09/10 05:27:11;;;;;;;50.42;43.50;;;;;;;19.10;100.00;101695.38;5023328;28;20029;-89
2023/09/10 05:29:37;;;;;;;55.92;47.90;;;;;;;19.19;100.00;101696.44;5026772;28;20103;-88
2023/09/10 05:32:02;;;;;;;60.58;50.10;;;;;;;19.20;100.00;101690.91;5045867;28;20044;-87
2023/09/10 05:34:28;;;;;;;53.80;44.92;;;;;;;19.21;100.00;101694.44;5046607;28;20025;-87
2023/09/10 05:36:54;;;;;;;51.47;41.55;;;;;;;19.26;100.00;101690.34;5019938;28;20053;-87
2023/09/10 05:39:21;;;;;;;50.88;43.15;;;;;;;19.34;100.00;101698.69;5034313;28;20064;-88
2023/09/10 05:41:47;;;;;;;44.65;36.90;;;;;;;19.39;100.00;101691.03;5041987;28;20431;-88
2023/09/10 05:44:13;;;;;;;34.38;30.73;;;;;;;19.43;100.00;101697.03;5017218;28;20259;-87
2023/09/10 05:46:38;;;;;;;36.53;32.65;;;;;;;19.51;100.00;101697.19;5014644;28;20069;-89
2023/09/10 05:49:04;;;;;;;59.20;48.22;;;;;;;19.60;100.00;101699.13;5012982;28;20589;-87
2023/09/10 05:51:30;;;;;;;52.50;42.33;;;;;;;19.64;100.00;101705.13;5034061;28;20037;-87
2023/09/10 05:53:55;;;;;;;59.35;49.97;;;;;;;19.73;100.00;101704.34;5036564;28;20033;-87
2023/09/10 05:56:21;;;;;;;67.05;56.45;;;;;;;19.82;100.00;101697.22;5018015;28;20076;-87
2023/09/10 05:58:47;;;;;;;63.92;53.95;;;;;;;19.95;100.00;101702.41;5047139;28;20045;-88
2023/09/10 06:01:12;;;;;;;72.22;57.25;;;;;;;20.01;100.00;101696.44;5030418;28;20030;-88
2023/09/10 06:03:38;;;;;;;72.53;58.45;;;;;;;20.07;100.00;101704.00;5028291;28;20382;-88
2023/09/10 06:06:04;;;;;;;67.28;57.67;;;;;;;20.12;100.00;101697.19;5032254;28;20041;-88
2023/09/10 06:08:31;;;;;;;75.70;59.58;;;;;;;20.17;100.00;101700.34;5023760;28;20026;-87
2023/09/10 06:10:57;;;;;;;80.50;64.75;;;;;;;20.26;100.00;101700.50;5022933;28;20038;-88
2023/09/10 06:13:25;;;;;;;72.13;59.90;;;;;;;20.25;100.00;101696.94;5038863;28;20049;-88
2023/09/10 06:15:52;;;;;;;81.63;62.65;;;;;;;20.23;100.00;101706.19;5005575;28;20092;-88
2023/09/10 06:18:18;;;;;;;65.03;53.55;;;;;;;20.35;100.00;101707.81;5034615;28;20049;-88
2023/09/10 06:20:44;;;;;;;67.43;56.35;;;;;;;20.46;100.00;101709.53;5039216;28;20037;-88
2023/09/10 06:23:10;;;;;;;72.85;59.88;;;;;;;20.52;100.00;101704.44;5000764;28;20057;-88
2023/09/10 06:25:36;;;;;;;74.93;61.97;;;;;;;20.61;100.00;101708.16;5005696;28;20050;-88
2023/09/10 06:28:01;;;;;;;72.80;55.05;;;;;;;20.70;100.00;101710.03;5000932;28;20037;-88
2023/09/10 06:30:27;;;;;;;72.00;59.72;;;;;;;20.75;100.00;101717.72;5006490;28;21381;-88
2023/09/10 06:32:59;;;;;;;70.40;59.38;;;;;;;20.79;100.00;101716.47;4993818;28;20041;-88
2023/09/10 06:35:26;;;;;;;75.47;59.25;;;;;;;20.88;100.00;101716.47;5014514;28;20058;-88
2023/09/10 06:37:52;;;;;;;71.20;59.60;;;;;;;20.97;100.00;101719.28;5005261;28;20042;-88
2023/09/10 06:40:18;;;;;;;78.40;65.28;;;;;;;21.01;100.00;101732.41;5015000;28;20065;-89
2023/09/10 06:42:45;;;;;;;78.45;62.28;;;;;;;21.19;100.00;101719.00;5006871;28;20045;-87
2023/09/10 06:45:28;;;;;;;72.15;59.92;;;;;;;21.44;100.00;101715.69;5007651;28;20065;-89
2023/09/10 06:47:54;;;;;;;72.63;60.78;;;;;;;21.63;100.00;101720.19;5015840;28;20411;-87
2023/09/10 06:50:19;;;;;;;76.03;62.63;;;;;;;21.78;100.00;101711.56;5005904;28;20496;-88
2023/09/10 06:52:45;;;;;;;74.25;61.83;;;;;;;21.97;100.00;101714.22;5009454;28;20120;-88
2023/09/10 06:55:10;;;;;;;73.07;61.60;;;;;;;22.17;100.00;101713.13;5021544;28;20052;-90
2023/09/10 06:57:36;;;;;;;70.50;58.78;;;;;;;22.38;100.00;101709.28;5023863;28;20042;-89
2023/09/10 07:00:02;;;;;;;76.95;63.35;;;;;;;22.51;100.00;101712.50;5016117;28;20042;-89
2023/09/10 07:02:28;;;;;;;69.93;59.25;;;;;;;22.69;100.00;101704.34;5020366;28;20053;-90
2023/09/10 07:04:54;;;;;;;67.75;60.38;;;;;;;22.81;100.00;101713.16;5022430;28;20446;-88
2023/09/10 07:07:20;;;;;;;82.50;67.43;;;;;;;22.81;100.00;101697.69;5007982;28;20069;-88
2023/09/10 07:09:45;;;;;;;79.28;67.93;;;;;;;23.08;100.00;101710.34;5004001;28;20038;-88
2023/09/10 07:12:11;;;;;;;68.47;59.53;;;;;;;23.19;100.00;101712.84;5020148;28;20360;-90
2023/09/10 07:14:37;;;;;;;68.93;55.60;;;;;;;23.38;100.00;101710.91;5034717;28;20034;-88
2023/09/10 07:17:02;;;;;;;72.43;61.00;;;;;;;23.45;100.00;101699.22;5006487;28;20915;-89
2023/09/10 07:19:28;;;;;;;78.13;63.75;;;;;;;23.60;100.00;101702.22;5041604;28;20856;-90
2023/09/10 07:21:54;;;;;;;68.13;60.58;;;;;;;23.85;100.00;101700.50;5011654;28;20715;-88
2023/09/10 07:24:20;;;;;;;76.40;60.55;;;;;;;23.97;100.00;101710.09;5026178;28;20507;-89
2023/09/10 07:26:46;;;;;;;72.97;62.80;;;;;;;24.09;100.00;101709.78;5010405;28;20056;-88
2023/09/10 07:29:20;;;;;;;76.65;63.47;;;;;;;24.35;100.00;101713.31;5013981;28;20758;-88
2023/09/10 07:31:46;;;;;;;73.70;63.67;;;;;;;24.43;100.00;101707.88;5008050;28;20680;-90
2023/09/10 07:34:12;;;;;;;73.25;61.97;;;;;;;24.65;100.00;101708.25;5008194;28;20037;-89
2023/09/10 07:36:38;;;;;;;78.68;64.65;;;;;;;24.87;100.00;101702.16;5023710;28;20935;-89
2023/09/10 07:39:03;;;;;;;75.55;66.18;;;;;;;25.07;100.00;101702.72;5019987;28;20065;-90
2023/09/10 07:41:32;;;;;;;76.53;65.80;;;;;;;25.25;100.00;101706.13;5021012;28;20125;-88
2023/09/10 07:44:00;;;;;;;80.22;67.45;;;;;;;25.51;100.00;101705.03;5019560;28;20045;-91
2023/09/10 07:46:25;;;;;;;81.47;65.55;;;;;;;25.66;100.00;101707.91;5020524;28;20084;-91
2023/09/10 07:48:54;;;;;;;85.43;68.97;;;;;;;25.49;100.00;101709.81;5031275;28;20088;-91
2023/09/10 07:51:24;;;;;;;85.20;67.68;;;;;;;25.48;100.00;101719.03;5027401;28;20049;-91
2023/09/10 07:53:49;;;;;;;82.20;65.13;;;;;;;25.63;100.00;101714.56;5030223;28;20045;-89
2023/09/10 07:56:15;;;;;;;83.43;68.90;;;;;;;25.83;100.00;101713.16;5028632;28;20052;-88
2023/09/10 07:58:41;;;;;;;78.55;67.30;;;;;;;25.93;100.00;101710.22;5024484;28;20034;-89
2023/09/10 08:01:07;;;;;;;78.13;66.15;;;;;;;26.33;100.00;101711.06;5020997;28;20048;-88
2023/09/10 08:03:34;;;;;;;86.53;66.88;;;;;;;26.58;100.00;101709.94;5042842;28;20034;-90
2023/09/10 08:06:00;;;;;;;87.82;68.15;;;;;;;26.35;100.00;101709.00;5004655;28;20046;-92
2023/09/10 08:08:28;;;;;;;78.57;65.13;;;;;;;26.74;100.00;101705.38;5029617;28;20042;-91
2023/09/10 08:10:55;;;;;;;74.88;62.50;;;;;;;26.78;99.33;101714.94;5013026;28;20052;-88
2023/09/10 08:13:22;;;;;;;76.85;65.13;;;;;;;26.52;100.00;101713.38;5014570;28;20033;-90
2023/09/10 08:15:51;;;;;;;75.75;64.70;;;;;;;26.31;100.00;101714.00;5014008;28;20043;-91
2023/09/10 08:18:17;;;;;;;72.32;58.92;;;;;;;26.31;100.00;101716.72;5008635;28;20042;-88
2023/09/10 08:20:43;;;;;;;73.40;60.33;;;;;;;26.23;100.00;101719.50;5019705;28;20037;-87
2023/09/10 08:23:09;;;;;;;69.93;57.17;;;;;;;26.39;100.00;101718.56;5013349;28;20226;-89
2023/09/10 08:25:35;;;;;;;70.70;58.00;;;;;;;26.55;100.00;101718.47;5007491;28;20057;-89
2023/09/10 08:28:02;;;;;;;66.93;56.72;;;;;;;26.40;100.00;101722.13;5001080;28;20041;-88
2023/09/10 08:30:28;;;;;;;71.80;57.47;;;;;;;25.98;100.00;101718.75;5013710;28;20038;-89
2023/09/10 08:32:54;;;;;;;74.40;59.17;;;;;;;25.99;100.00;101716.88;5030933;28;20033;-89
2023/09/10 08:35:21;;;;;;;73.30;58.13;;;;;;;25.82;100.00;101716.94;5034330;28;20033;-87
2023/09/10 08:37:47;;;;;;;72.93;57.67;;;;;;;25.98;100.00;101720.63;5012337;28;20033;-89
2023/09/10 08:40:16;;;;;;;62.75;52.08;;;;;;;26.22;100.00;101716.94;5041416;28;20041;-87
2023/09/10 08:42:42;;;;;;;62.03;49.38;;;;;;;26.01;100.00;101721.16;5029455;28;20087;-88
2023/09/10 08:45:10;;;;;;;57.05;46.55;;;;;;;26.44;100.00;101718.06;5025192;28;20415;-90
2023/09/10 08:47:43;;;;;;;54.17;44.10;;;;;;;26.13;100.00;101718.03;5009863;28;20207;-89
2023/09/10 08:50:09;;;;;;;54.72;44.38;;;;;;;26.23;100.00;101715.91;5027625;28;20064;-88
2023/09/10 08:52:43;;;;;;;53.90;44.10;;;;;;;26.26;100.00;101708.22;5020652;28;20038;-88
2023/09/10 08:55:11;;;;;;;53.40;44.10;;;;;;;26.26;100.00;101713.69;5036945;28;20037;-88
2023/09/10 08:57:38;;;;;;;51.10;43.58;;;;;;;26.25;100.00;101708.38;5047379;28;20115;-89
2023/09/10 09:00:17;;;;;;;54.58;44.75;;;;;;;26.31;100.00;101705.78;5029336;28;20076;-88
2023/09/10 09:02:45;;;;;;;48.13;40.95;;;;;;;26.56;100.00;101695.59;5030794;28;20026;-89
2023/09/10 09:05:11;;;;;;;58.05;43.45;;;;;;;26.44;100.00;101701.63;5030046;28;20049;-89
2023/09/10 09:07:54;;;;;;;50.08;41.88;;;;;;;26.44;99.28;101702.50;5013227;28;20042;-88
2023/09/10 09:10:29;;;;;;;47.90;39.90;;;;;;;26.59;98.46;101695.19;5023653;28;20041;-89
2023/09/10 09:13:09;;;;;;;49.47;40.60;;;;;;;26.60;98.84;101698.78;5019491;28;21014;-88
2023/09/10 09:15:38;;;;;;;47.28;40.65;;;;;;;26.73;98.63;101698.19;5007564;28;20060;-90
2023/09/10 09:18:08;;;;;;;46.35;37.65;;;;;;;26.92;100.00;101697.72;5022522;28;20057;-89
2023/09/10 09:20:36;;;;;;;47.63;37.47;;;;;;;27.23;97.88;101692.16;5008418;28;20037;-91
2023/09/10 09:23:32;;;;;;;44.35;36.58;;;;;;;27.02;94.21;101686.50;5034575;28;20049;-90
2023/09/10 09:25:58;;;;;;;44.65;36.08;;;;;;;27.23;96.62;101689.41;5037387;28;20042;-89
2023/09/10 09:28:26;;;;;;;38.58;31.92;;;;;;;27.55;94.74;101690.09;5013499;28;20049;-87
2023/09/10 09:30:53;;;;;;;42.63;33.72;;;;;;;27.60;92.48;101684.91;5012175;28;20033;-89
2023/09/10 09:33:19;;;;;;;38.92;33.85;;;;;;;27.26;92.52;101690.91;5004559;28;20025;-91
2023/09/10 09:35:46;;;;;;;37.83;30.85;;;;;;;27.57;94.42;101686.16;5003705;28;20029;-88
2023/09/10 09:38:15;;;;;;;33.22;27.73;;;;;;;27.85;91.00;101685.50;5017845;28;20052;-90
2023/09/10 09:40:45;;;;;;;38.90;30.83;;;;;;;27.85;89.74;101685.50;5013665;28;20065;-88
2023/09/10 09:43:11;;;;;;;34.28;28.00;;;;;;;27.84;91.47;101684.66;5026247;28;20092;-88
2023/09/10 09:45:38;;;;;;;33.90;22.98;;;;;;;27.60;81.64;101682.16;5018568;28;20104;-88
2023/09/10 09:48:04;;;;;;;33.63;22.55;;;;;;;27.56;84.30;101672.63;5008425;28;20785;-91
2023/09/10 09:50:31;;;;;;;28.35;23.40;;;;;;;27.59;83.93;101675.84;5021699;28;20629;-88
2023/09/10 09:52:56;;;;;;;34.65;23.38;;;;;;;27.56;83.60;101670.75;5044926;28;20037;-87
2023/09/10 09:55:26;;;;;;;29.92;20.75;;;;;;;27.68;82.57;101670.28;5014567;28;20041;-87
2023/09/10 09:57:51;;;;;;;25.70;19.63;;;;;;;27.57;80.20;101669.72;5024209;28;20121;-87
2023/09/10 10:00:17;;;;;;;28.10;20.83;;;;;;;27.72;82.97;101671.63;5020289;28;20376;-89
2023/09/10 10:02:44;;;;;;;33.58;21.48;;;;;;;27.97;82.78;101664.78;5024903;28;20025;-89
2023/09/10 10:05:11;;;;;;;23.52;19.30;;;;;;;27.87;79.91;101664.25;5026901;28;20042;-88
2023/09/10 10:07:37;;;;;;;24.02;17.23;;;;;;;28.23;80.64;101657.94;5027568;28;20037;-88
2023/09/10 10:10:08;;;;;;;26.00;17.85;;;;;;;28.17;80.38;101653.22;5033980;28;20040;-89
2023/09/10 10:12:35;;;;;;;29.40;20.27;;;;;;;28.05;78.88;101652.84;5030832;28;20029;-89
2023/09/10 10:15:01;;;;;;;28.52;18.17;;;;;;;28.22;81.07;101654.34;5034489;28;20037;-88
2023/09/10 10:17:28;;;;;;;26.77;19.10;;;;;;;28.06;79.26;101651.81;5042775;28;20034;-89
2023/09/10 10:19:55;;;;;;;21.02;15.52;;;;;;;28.48;79.05;101653.81;5024153;28;20049;-89
2023/09/10 10:22:25;;;;;;;26.55;18.25;;;;;;;28.55;79.28;101659.34;5041678;28;20033;-88
2023/09/10 10:24:51;;;;;;;22.33;16.52;;;;;;;28.58;76.85;101653.47;5025342;28;20049;-88
2023/09/10 10:27:20;;;;;;;27.90;17.10;;;;;;;28.54;76.25;101657.66;5015491;28;20072;-90
2023/09/10 10:29:45;;;;;;;26.25;16.40;;;;;;;28.65;77.25;101648.91;5042398;28;20069;-91
2023/09/10 10:32:32;;;;;;;31.13;19.50;;;;;;;28.59;75.13;101650.53;5029609;28;21026;-90
2023/09/10 10:35:02;;;;;;;21.33;15.98;;;;;;;28.91;78.63;101643.63;5022658;28;20037;-92
2023/09/10 10:37:45;;;;;;;23.02;16.23;;;;;;;29.02;76.15;101642.28;5013287;28;20044;-94
2023/09/10 10:40:16;;;;;;;23.00;16.30;;;;;;;29.15;75.54;101642.38;5023800;28;20072;-89
2023/09/10 10:42:54;;;;;;;25.27;16.40;;;;;;;28.92;72.64;101647.25;5048744;28;20041;-91
2023/09/10 10:45:25;;;;;;;23.42;16.40;;;;;;;28.78;72.41;101645.44;5014210;28;20050;-91
2023/09/10 10:47:55;;;;;;;21.45;16.20;;;;;;;28.85;75.39;101643.59;5043254;28;20049;-88
2023/09/10 10:50:26;;;;;;;24.00;16.00;;;;;;;29.06;75.90;101634.47;5032046;28;20036;-91
2023/09/10 10:52:59;;;;;;;24.25;16.85;;;;;;;29.04;73.29;101642.94;5016652;28;20040;-90
2023/09/10 10:55:26;;;;;;;20.35;14.38;;;;;;;29.09;75.91;101637.69;5015783;28;20109;-87
2023/09/10 10:57:55;;;;;;;25.75;15.27;;;;;;;29.34;73.45;101634.47;5047377;28;20069;-90
2023/09/10 11:00:24;;;;;;;19.85;14.07;;;;;;;29.47;76.02;101630.94;5021533;28;20908;-93
2023/09/10 11:03:17;;;;;;;22.17;13.27;;;;;;;29.32;72.64;101628.31;5030456;28;20866;-90
2023/09/10 11:05:52;;;;;;;16.15;10.80;;;;;;;29.58;69.87;101631.28;5001609;28;20053;-89